Logo AVAMET
Benvolgut visitant, si us plau, ingressa Recuperar contrasenya

Benigembla Ajuntament

Dades diàries. Acumulats / Últims 30 dies disponibles

Data Temperatura (°C) Humitat rel. (%) Pressió rel. (hPa) Vent (km/h) Precipitació
Mínima Mitjana Màxima Amplitud
tèrmica
Mínima Mitjana Màxima Mínima Mitjana Màxima Predom. Mitjana Ràfega
màxima
Total
(mm)
Índex-n
Mínima Mitjana Màxima Mínima Mitjana Màxima n
0 a 1
P0 max
mm 5'
Dades mensuals acumulades fins l'últim dia disponible
05/2019 7,8 12,7 20,3 17,9 18,1 23,5 30,8 23,0 23 65 93 1.002 1.015 1.025   5,3 64,4 15,8
Dades anuals acumulades fins l'últim dia disponible
2019 0,7 8,5 20,3 13,3 10,7 18,6 30,8 30,1 17 62 95 994 1.019 1.036   7,1 98,2 489,6
Últims 30 dies disponibles
24-05-2019 15,1     16,8     20,1 5,0 45 76 90 1.013 1.015 1.016 SO 1,6 25,7 2,2
23-05-2019 14,2     21,4     28,0 13,8 23 47 75 1.015 1.017 1.019 NW 6,4 38,6 0,0
22-05-2019 12,3     19,1     24,8 12,5 38 65 88 1.017 1.018 1.019 NW 5,3 33,8 0,0
21-05-2019 12,6     16,9     21,7 9,1 48 72 87 1.014 1.016 1.018 NNW 3,9 40,2 0,6
20-05-2019 10,2     16,6     22,8 12,6 42 64 82 1.012 1.013 1.015 NW 5,6 24,1 0,0
19-05-2019 9,9     16,2     22,5 12,6 29 64 86 1.010 1.011 1.013 NW 5,3 33,8 0,0
18-05-2019 11,6     14,8     18,1 6,5 47 68 87 1.009 1.010 1.011 NW 3,1 20,9 7,6
17-05-2019 14,3     18,7     22,7 8,4 33 49 87 1.002 1.006 1.010 O 10,7 64,4 0,0
16-05-2019 15,0     18,6     24,1 9,1 52 71 88 1.006 1.011 1.016 WNW 5,6 35,4 0,0
15-05-2019 13,1     18,9     25,6 12,5 45 62 82 1.011 1.012 1.015 SE 6,4 35,4 0,0
14-05-2019 9,1     17,5     24,1 15,0 35 56 88 1.015 1.019 1.022 NW 6,0 37,0 0,0
13-05-2019 11,6     17,1     22,4 10,8 49 68 86 1.019 1.020 1.022 SE 4,2 25,7 0,0
12-05-2019 12,9     18,6     24,9 12,0 51 69 85 1.020 1.023 1.025 NNW 4,0 29,0 0,0
11-05-2019 17,2     21,0     24,2 7,0 51 62 73 1.015 1.018 1.023 SE 6,0 29,0 0,0
10-05-2019 20,3     24,6     30,8 10,5 30 52 66 1.012 1.013 1.015 NW 6,4 41,8 0,0
09-05-2019 19,4     22,4     27,2 7,8 45 56 69 1.012 1.013 1.014 NNW 7,4 48,3 0,0
08-05-2019 14,4     22,4     28,1 13,7 35 52 86 1.010 1.012 1.015 NW 8,2 46,7 0,0
07-05-2019 12,7     19,1     25,2 12,5 44 71 93 1.014 1.017 1.020 SE 4,2 35,4 0,0
06-05-2019 9,1     15,4     23,2 14,1 59 79 91 1.017 1.018 1.020 SE 3,9 22,5 0,0
05-05-2019 10,1     15,1     22,1 12,0 47 66 88 1.013 1.015 1.018 SE 4,3 30,6 0,0
04-05-2019 7,8     14,3     19,4 11,6 55 71 91 1.011 1.013 1.015 NW 5,8 35,4 0,0
03-05-2019 9,3     13,1     18,7 9,4 61 79 91 1.011 1.013 1.016 NW 5,8 40,2 5,4 0,59 1,80
02-05-2019 11,7     15,2     19,0 7,3 64 76 87 1.014 1.015 1.017 SE 2,9 20,9 0,0
01-05-2019 10,2     15,9     23,2 13,0 NNW 3,2 30,6 0,0
30-04-2019 11,6     16,3     21,4 9,8 59 78 92 1.016 1.018 1.019 SE 4,5 32,2 0,0
29-04-2019 9,0     14,9     20,2 11,2 65 76 88 1.017 1.019 1.021 NNW 3,5 29,0 0,0
28-04-2019 10,6     16,9     23,9 13,3 37 60 77 1.019 1.023 1.025 NW 5,0 22,5 0,0
27-04-2019 10,0     16,4     22,1 12,1 39 57 75 1.024 1.026 1.027 NW 6,1 29,0 0,0
26-04-2019 11,8     16,1     20,7 8,9 36 50 65 1.018 1.022 1.026 NW 7,9 45,1 0,0
25-04-2019 13,9     18,3     22,1 8,2 41 54 73 1.010 1.013 1.018 WSW 8,9 45,1 0,0
Últims 13 mesos disponibles
04/2019 7,2 10,4 13,9 14,5 13,1 18,9 27,7 20,5 36 68 94 1.000 1.013 1.026 WSW 8,2 85,3 377,0
03/2019 4,5 8,3 15,4 13,5 12,4 18,9 27,1 22,6 30 58 90 1.011 1.023 1.031 WSW 6,4 59,5 90,8
02/2019 2,2 6,1 11,1 11,2 10,9 17,1 23,3 21,1 36 61 82 996 1.026 1.034 WSW 7,2 95,0 0,2
01/2019 0,7 6,0 12,6 10,2 10,7 15,6 20,3 19,6 38 60 82 1.004 1.020 1.032 W 8,3 98,2 5,8
12/2018 4,2 8,2 12,3 12,4 11,2 18,4 24,4 20,2 53 67 91 1.009 1.026 1.032 W 5,3 90,1 37,2
11/2018 5,8 10,3 15,7 13,8 13,2 18,1 23,8 18,0 48 71 93 1.001 1.016 1.024 W 5,1 72,4 189,4
10/2018 7,6 13,5 16,8 17,5 13,8 22,3 28,1 20,5 49 71 86 1.000 1.015 1.026 WNW 5,0 69,2 101,4
09/2018 12,7 18,8 21,5 23,0 22,7 27,8 34,0 21,3 56 75 85 1.013 1.019 1.028 WNW 4,1 43,5 72,2
08/2018 17,9 21,2 23,8 26,2 24,5 31,5 36,3 18,4 42 65 81 1.012 1.017 1.021 WNW 4,7 51,5 16,2
07/2018 17,9 20,5 24,3 26,5 26,4 32,3 36,4 18,5 WNW 5,5 53,1 0,0
06/2018 12,5 17,0 20,9 22,6 21,7 27,9 32,3 19,8 WNW 5,2 43,5 57,2
05/2018 7,2 12,5 16,6 18,0 16,4 23,4 27,4 20,2 WNW 5,0 48,3 11,8
04/2018 7,2 10,9 15,2 15,3 12,9 20,1 27,9 20,7 WNW 6,3 74,0 28,4
Tots els anys disponibles
2018 1,3 13,0 24,3 17,6 6,9 22,6 36,4 35,1 42 70 93 1.000 1.019 1.032 WNW 5,8 95,0 795,0
2017 1,2 14,9 25,4 19,9 10,3 25,4 38,9 37,7 WNW 5,4 106,2 226,2
Temperatura (°C)
Humitat relativa (%)
Velocitat del vent i ràfega màxima (km/h)
Direcció del vent (°)
Pressió (hPa)
Precipitació (mm)
Nota sobre les dades: s'avisa a l'usuari de la provisionalitat i no oficialitat d'aquestes dades
Logo AVAMET blanc
Web allotjada a Sollutia
Llicència de Creative CommonsLa web d'AVAMET i els seus continguts estan subjectes a una llicència de
Reconeixement - No Comercial - Compartir igual
Properes estacions: Altea - Club Nàutic d'Altea (Soci), Ontinyent - El Pilar (Soci), Ares del Maestrat (Ajuntament Soci), Catadau - L'Altet (Inforatge)     - - - - -      Últimes estacions: Asp - Poliesportiu (Soci), Jacarilla - centro (MeteOrihuela), Elx - Maitino/Vallverda/Velarde/Matola/Ferriol (Soci TiempoElche.com), Orihuela - Playa Flamenca (MeteOrihuela), - - -